Weather at St Louis Lambert International Airport

Public forecast

Using degrees Fahrenheit for public forecast. Weather courtesy of forecast.io.

Current aviation weather report (METAR) for St Louis Lambert International Airport

Retrieved 2021/04/20 23:09 UTC (16 minutes ago):

KSTL 202309Z 31005KT 10SM SCT011 BKN015 BKN045 04/01 A3012 RMK AO2 T00390011

Aviation forecast (TAF) for St Louis Lambert International Airport

Retrieved 2021/04/20 18:42 UTC (5 hours ago):

TAF KSTL 201740Z 2018/2124 35008KT 2SM -RASN BR SCT005 OVC010 TEMPO 2018/2021 1SM -SN BKN005 FM210000 33008KT P6SM BKN013 FM210300 29005KT P6SM BKN045 FM210500 27005KT P6SM SCT250